createdAt,value
2019-04-30T00:00:55.395Z,94.5205
2019-04-30T00:02:00.878Z,94.3236
2019-04-30T00:03:06.852Z,94.7570
2019-04-30T00:04:12.847Z,94.1482
2019-04-30T00:05:18.850Z,94.0246
2019-04-30T00:06:27.325Z,93.8094
2019-04-30T00:07:35.724Z,93.8888
2019-04-30T00:08:45.149Z,93.7835
2019-04-30T00:09:54.048Z,93.9117
2019-04-30T00:11:00.847Z,94.7341
2019-04-30T00:12:05.939Z,94.4198
2019-04-30T00:13:17.505Z,94.7112
2019-04-30T00:14:22.907Z,95.2483
2019-04-30T00:15:27.218Z,95.7748
2019-04-30T00:16:36.348Z,95.5367
2019-04-30T00:17:45.606Z,96.2371
2019-04-30T00:18:59.927Z,95.6680
2019-04-30T00:20:01.883Z,95.5322
2019-04-30T00:21:10.003Z,96.1730
2019-04-30T00:22:30.521Z,96.4981
2019-04-30T00:23:30.715Z,96.2966
2019-04-30T00:24:39.840Z,95.5398
2019-04-30T00:25:46.826Z,95.1507
2019-04-30T00:26:52.483Z,94.4594
2019-04-30T00:28:00.357Z,95.0423
2019-04-30T00:29:08.167Z,95.1827
2019-04-30T00:30:15.466Z,95.0103
2019-04-30T00:31:23.862Z,95.1003
2019-04-30T00:32:30.210Z,94.8577
2019-04-30T00:33:35.871Z,95.0790
2019-04-30T00:34:40.252Z,95.3521
2019-04-30T00:35:49.711Z,95.1385
2019-04-30T00:36:56.207Z,95.2422
2019-04-30T00:38:01.933Z,95.1736
2019-04-30T00:39:13.183Z,94.6975
2019-04-30T00:40:21.752Z,95.4406
2019-04-30T00:41:30.177Z,96.1364
2019-04-30T00:42:35.923Z,95.0103
2019-04-30T00:43:46.476Z,94.5342
2019-04-30T00:44:52.110Z,93.7789
2019-04-30T00:45:58.173Z,94.0719
2019-04-30T00:47:04.918Z,94.2809
2019-04-30T00:48:19.828Z,94.5480
2019-04-30T00:49:26.531Z,94.8211
2019-04-30T00:50:33.952Z,93.6004
2019-04-30T00:51:41.799Z,93.6584
2019-04-30T00:52:46.330Z,94.8821
2019-04-30T00:53:52.584Z,94.2092
2019-04-30T00:55:00.361Z,94.1314
2019-04-30T00:56:07.922Z,93.7148
2019-04-30T00:57:15.164Z,94.1085
2019-04-30T00:58:28.538Z,94.4930
2019-04-30T00:59:30.856Z,94.2489
2019-04-30T01:00:37.165Z,93.4295
2019-04-30T01:01:43.572Z,92.6299
2019-04-30T01:02:52.879Z,92.6009
2019-04-30T01:03:57.973Z,92.8939
2019-04-30T01:05:08.623Z,92.6970
2019-04-30T01:06:17.133Z,92.7840
2019-04-30T01:07:23.837Z,92.6146
2019-04-30T01:08:28.842Z,91.8837
2019-04-30T01:09:35.414Z,92.3629
2019-04-30T01:10:40.929Z,93.0053
2019-04-30T01:11:48.105Z,91.9661
2019-04-30T01:12:53.928Z,92.7855
2019-04-30T01:13:59.881Z,91.8013
2019-04-30T01:15:06.717Z,92.1614
2019-04-30T01:16:15.954Z,92.1935
2019-04-30T01:17:21.951Z,93.3471
2019-04-30T01:18:31.822Z,93.1380
2019-04-30T01:19:39.531Z,93.3104
2019-04-30T01:20:44.704Z,93.3257
2019-04-30T01:21:50.927Z,94.1863
2019-04-30T01:22:58.568Z,93.3333
2019-04-30T01:24:03.864Z,93.5119
2019-04-30T01:25:13.294Z,94.5571
2019-04-30T01:26:18.743Z,94.8821
2019-04-30T01:27:23.809Z,94.0063
2019-04-30T01:28:29.116Z,94.3648
2019-04-30T01:29:40.914Z,94.5281
2019-04-30T01:30:45.025Z,94.7631
2019-04-30T01:31:50.985Z,94.0902
2019-04-30T01:32:58.148Z,93.8247
2019-04-30T01:34:12.357Z,94.4427
2019-04-30T01:35:15.913Z,94.3145
2019-04-30T01:36:21.890Z,94.5830
2019-04-30T01:37:31.359Z,94.8775
2019-04-30T01:38:40.075Z,94.9645
2019-04-30T01:39:45.981Z,95.3429
2019-04-30T01:40:51.874Z,94.6792
2019-04-30T01:41:58.594Z,94.8623
2019-04-30T01:43:04.162Z,94.6792
2019-04-30T01:44:11.925Z,95.3353
2019-04-30T01:45:18.776Z,95.8007
2019-04-30T01:46:25.214Z,95.9197
2019-04-30T01:47:31.381Z,95.5123
2019-04-30T01:48:36.836Z,95.1522
2019-04-30T01:49:44.654Z,95.9930
2019-04-30T01:50:49.866Z,96.5347
2019-04-30T01:51:57.309Z,97.0932
2019-04-30T01:53:04.853Z,97.2992
2019-04-30T01:54:17.947Z,96.8719
2019-04-30T01:55:23.945Z,95.9167
2019-04-30T01:56:30.169Z,95.3719
2019-04-30T01:57:35.879Z,94.8318
2019-04-30T01:58:40.895Z,94.5968
2019-04-30T01:59:48.587Z,94.6899
2019-04-30T02:00:53.937Z,95.0866
2019-04-30T02:01:59.947Z,94.1619
2019-04-30T02:03:05.599Z,94.3404
2019-04-30T02:04:10.218Z,96.3180
2019-04-30T02:05:15.775Z,96.5896
2019-04-30T02:06:20.856Z,96.8872
2019-04-30T02:07:24.853Z,96.4691
2019-04-30T02:08:29.994Z,94.6166
2019-04-30T02:09:35.879Z,93.6736
2019-04-30T02:10:40.854Z,93.4676
2019-04-30T02:11:45.857Z,93.6126
2019-04-30T02:12:51.156Z,95.2834
2019-04-30T02:13:56.867Z,95.4635
2019-04-30T02:15:02.938Z,96.0616
2019-04-30T02:16:08.885Z,95.0652
2019-04-30T02:17:13.937Z,94.5693
2019-04-30T02:18:19.906Z,94.7295
2019-04-30T02:19:25.822Z,94.6349
2019-04-30T02:20:31.831Z,95.6237
2019-04-30T02:21:38.285Z,95.6542
2019-04-30T02:22:43.855Z,96.6079
2019-04-30T02:23:49.335Z,97.0733
2019-04-30T02:24:55.433Z,97.4914
2019-04-30T02:26:00.835Z,97.6196
2019-04-30T02:27:06.226Z,94.9767
2019-04-30T02:28:11.813Z,95.3857
2019-04-30T02:29:16.895Z,95.3582
2019-04-30T02:30:22.835Z,95.4040
2019-04-30T02:31:30.692Z,95.8099
2019-04-30T02:32:39.371Z,96.4645
2019-04-30T02:33:44.811Z,95.5673
2019-04-30T02:34:49.946Z,95.1598
2019-04-30T02:35:55.853Z,95.5184
2019-04-30T02:37:00.919Z,95.2163
2019-04-30T02:38:06.894Z,94.9371
2019-04-30T02:39:11.893Z,95.3567
2019-04-30T02:40:17.047Z,94.6197
2019-04-30T02:41:23.441Z,96.2631
2019-04-30T02:42:29.721Z,94.9447
2019-04-30T02:43:35.916Z,94.7112
2019-04-30T02:44:41.855Z,93.8567
2019-04-30T02:45:49.596Z,93.7423
2019-04-30T02:46:55.216Z,94.2367
2019-04-30T02:48:01.102Z,95.0332
2019-04-30T02:49:07.349Z,96.3836
2019-04-30T02:50:19.840Z,95.0225
2019-04-30T02:51:25.938Z,95.5550
2019-04-30T02:52:31.865Z,94.8821
2019-04-30T02:53:40.192Z,94.0764
2019-04-30T02:54:45.925Z,94.0154
2019-04-30T02:55:51.874Z,94.0307
2019-04-30T02:56:59.558Z,93.9895
2019-04-30T02:58:04.877Z,94.8440
2019-04-30T02:59:10.856Z,94.9645
2019-04-30T03:00:15.837Z,95.4498
2019-04-30T03:01:20.935Z,94.8989
2019-04-30T03:02:29.182Z,94.4778
2019-04-30T03:03:34.888Z,94.6059
2019-04-30T03:04:40.010Z,94.0017
2019-04-30T03:05:45.917Z,93.6507
2019-04-30T03:06:51.225Z,93.4249
2019-04-30T03:07:56.214Z,93.7270
2019-04-30T03:09:01.447Z,93.4890
2019-04-30T03:10:09.780Z,93.2921
2019-04-30T03:11:15.786Z,94.0902
2019-04-30T03:12:21.805Z,94.2870
2019-04-30T03:13:29.720Z,93.5851
2019-04-30T03:14:35.843Z,93.9391
2019-04-30T03:15:41.848Z,93.9559
2019-04-30T03:16:52.577Z,93.7316
2019-04-30T03:17:56.878Z,93.9376
2019-04-30T03:19:02.907Z,94.0475
2019-04-30T03:20:10.656Z,94.2321
2019-04-30T03:21:19.178Z,94.3221
2019-04-30T03:22:24.922Z,93.8888
2019-04-30T03:23:30.230Z,93.8842
2019-04-30T03:24:35.927Z,94.1405
2019-04-30T03:25:41.994Z,95.1110
2019-04-30T03:26:49.668Z,94.6624
2019-04-30T03:27:55.808Z,94.3328
2019-04-30T03:29:01.047Z,94.5464
2019-04-30T03:30:06.830Z,95.1690
2019-04-30T03:31:12.689Z,94.7768
2019-04-30T03:32:22.524Z,94.2092
2019-04-30T03:33:32.603Z,93.8964
2019-04-30T03:34:42.148Z,94.0246
2019-04-30T03:35:53.686Z,93.3059
2019-04-30T03:37:01.621Z,93.4722
2019-04-30T03:38:09.619Z,94.2168
2019-04-30T03:39:15.215Z,94.7066
2019-04-30T03:40:20.290Z,95.4025
2019-04-30T03:41:25.542Z,96.4981
2019-04-30T03:42:30.815Z,94.8165
2019-04-30T03:43:36.623Z,94.7631
2019-04-30T03:44:41.853Z,96.1730
2019-04-30T03:45:49.702Z,95.8923
2019-04-30T03:46:55.929Z,95.8511
2019-04-30T03:48:01.901Z,97.0367
2019-04-30T03:49:10.596Z,97.2885
2019-04-30T03:50:19.838Z,97.3587
2019-04-30T03:51:25.873Z,97.5082
2019-04-30T03:52:30.868Z,97.6181
2019-04-30T03:53:39.685Z,97.4990
2019-04-30T03:54:49.289Z,97.4090
2019-04-30T03:55:55.163Z,96.9512
2019-04-30T03:57:00.864Z,97.4136
2019-04-30T03:58:09.086Z,97.6684
2019-04-30T03:59:14.222Z,97.7188
2019-04-30T04:00:20.393Z,97.9904
2019-04-30T04:01:25.804Z,98.0636
2019-04-30T04:02:30.431Z,98.1369
2019-04-30T04:03:35.900Z,98.2696
2019-04-30T04:04:41.870Z,98.3413
2019-04-30T04:05:49.588Z,98.5702
2019-04-30T04:06:54.904Z,98.3001
2019-04-30T04:08:00.892Z,98.2864
2019-04-30T04:09:06.952Z,97.4487
2019-04-30T04:10:12.834Z,96.6613
2019-04-30T04:11:19.917Z,94.6944
2019-04-30T04:12:25.884Z,95.0729
2019-04-30T04:13:33.120Z,95.1843
2019-04-30T04:14:39.440Z,95.9884
2019-04-30T04:15:44.201Z,95.8190
2019-04-30T04:16:50.931Z,94.9401
2019-04-30T04:17:56.885Z,95.5535
2019-04-30T04:19:03.135Z,96.9406
2019-04-30T04:20:10.738Z,96.8399
2019-04-30T04:21:20.175Z,95.2483
2019-04-30T04:22:25.911Z,94.6792
2019-04-30T04:23:32.812Z,94.1405
2019-04-30T04:24:40.089Z,94.4503
2019-04-30T04:25:45.854Z,95.0195
2019-04-30T04:26:50.811Z,94.7936
2019-04-30T04:27:55.868Z,94.9783
2019-04-30T04:29:00.906Z,95.2483
2019-04-30T04:30:06.840Z,95.2575
2019-04-30T04:31:11.845Z,95.2743
2019-04-30T04:32:16.881Z,95.4314
2019-04-30T04:33:22.918Z,95.0683
2019-04-30T04:34:30.276Z,95.0515
2019-04-30T04:35:35.849Z,95.5505
2019-04-30T04:36:43.315Z,95.7977
2019-04-30T04:37:49.408Z,96.0342
2019-04-30T04:38:54.818Z,96.0449
2019-04-30T04:39:59.868Z,95.8984
2019-04-30T04:41:04.795Z,95.4208
2019-04-30T04:42:10.129Z,96.0571
2019-04-30T04:43:15.914Z,95.6680
2019-04-30T04:44:21.864Z,96.1456
2019-04-30T04:45:27.308Z,96.1120
2019-04-30T04:46:32.856Z,96.2417
2019-04-30T04:47:40.147Z,96.2783
2019-04-30T04:48:45.835Z,95.8785
2019-04-30T04:49:53.942Z,96.1776
2019-04-30T04:51:00.311Z,96.8490
2019-04-30T04:52:05.867Z,97.2244
2019-04-30T04:53:11.750Z,96.9467
2019-04-30T04:54:16.856Z,97.0321
2019-04-30T04:55:22.437Z,97.1298
2019-04-30T04:56:30.253Z,97.2992
2019-04-30T04:57:35.201Z,97.5448
2019-04-30T04:58:40.865Z,97.6867
2019-04-30T04:59:45.818Z,97.1984
2019-04-30T05:00:52.249Z,97.1557
2019-04-30T05:01:59.780Z,97.4090
2019-04-30T05:03:05.903Z,97.3892
2019-04-30T05:04:11.735Z,97.4716
2019-04-30T05:05:19.435Z,97.6333
2019-04-30T05:06:24.949Z,97.7096
2019-04-30T05:07:30.937Z,97.5509
2019-04-30T05:08:36.831Z,97.3632
2019-04-30T05:09:41.894Z,97.2610
2019-04-30T05:10:49.374Z,97.0977
2019-04-30T05:11:54.958Z,96.8353
2019-04-30T05:13:00.903Z,97.5128
2019-04-30T05:14:08.371Z,97.5952
2019-04-30T05:15:15.201Z,97.6104
2019-04-30T05:16:21.320Z,97.4228
2019-04-30T05:17:26.806Z,97.1344
2019-04-30T05:18:32.887Z,97.3953
2019-04-30T05:19:38.868Z,96.7895
2019-04-30T05:20:43.861Z,97.0825
2019-04-30T05:21:51.508Z,97.2671
2019-04-30T05:22:58.485Z,97.0291
2019-04-30T05:24:04.022Z,97.4136
2019-04-30T05:25:09.277Z,97.4228
2019-04-30T05:26:14.959Z,97.3907
2019-04-30T05:27:20.835Z,97.3892
2019-04-30T05:28:25.910Z,97.4395
2019-04-30T05:29:31.837Z,97.0520
2019-04-30T05:30:36.236Z,96.5438
2019-04-30T05:31:41.903Z,96.3516
2019-04-30T05:32:50.398Z,96.7727
2019-04-30T05:33:55.857Z,96.0220
2019-04-30T05:34:59.849Z,96.2631
2019-04-30T05:36:05.205Z,96.0067
2019-04-30T05:37:10.222Z,96.3241
2019-04-30T05:38:16.338Z,95.7549
2019-04-30T05:39:21.858Z,95.2667
2019-04-30T05:40:28.778Z,95.9838
2019-04-30T05:41:33.826Z,94.7662
2019-04-30T05:42:38.918Z,95.4543
2019-04-30T05:43:44.939Z,95.1736
2019-04-30T05:44:49.933Z,95.0088
2019-04-30T05:45:55.811Z,95.7687
2019-04-30T05:47:00.855Z,93.9879
2019-04-30T05:48:06.081Z,93.4447
2019-04-30T05:49:12.586Z,94.1985
2019-04-30T05:50:19.762Z,93.1884
2019-04-30T05:51:26.637Z,88.9357
2019-04-30T05:52:31.942Z,88.6107
2019-04-30T05:53:39.361Z,86.3767
2019-04-30T05:54:45.371Z,88.0552
2019-04-30T05:55:51.241Z,88.5328
2019-04-30T05:56:56.240Z,87.8050
2019-04-30T05:58:02.687Z,88.3131
2019-04-30T05:59:09.023Z,88.0507
2019-04-30T06:00:14.949Z,88.2170
2019-04-30T06:01:20.857Z,88.3452
2019-04-30T06:02:28.049Z,88.5679
2019-04-30T06:03:35.935Z,86.7063
2019-04-30T06:04:41.159Z,87.5807
2019-04-30T06:05:46.851Z,86.2486
2019-04-30T06:06:52.163Z,86.4256
2019-04-30T06:07:59.341Z,86.7109
2019-04-30T06:09:10.616Z,86.3996
2019-04-30T06:10:14.226Z,86.4027
2019-04-30T06:11:20.168Z,86.3844
2019-04-30T06:12:25.792Z,87.3518
2019-04-30T06:13:32.063Z,85.9556
2019-04-30T06:14:48.400Z,85.3040
2019-04-30T06:15:48.978Z,84.9928
2019-04-30T06:16:54.224Z,87.0161
2019-04-30T06:18:06.806Z,83.2227
2019-04-30T06:19:11.366Z,83.6240
2019-04-30T06:20:18.209Z,83.0716
2019-04-30T06:21:24.987Z,83.2258
2019-04-30T06:22:31.224Z,84.8554
2019-04-30T06:23:36.970Z,83.5599
2019-04-30T06:24:42.812Z,83.1403
2019-04-30T06:25:57.554Z,83.5874
2019-04-30T06:26:58.963Z,83.9872
2019-04-30T06:28:04.995Z,83.8254
2019-04-30T06:29:10.806Z,83.8270
2019-04-30T06:30:16.947Z,83.8315
2019-04-30T06:31:32.280Z,83.8315
2019-04-30T06:32:34.192Z,84.1611
2019-04-30T06:33:39.872Z,85.2674
2019-04-30T06:34:45.962Z,85.7847
2019-04-30T06:35:52.326Z,86.1982
2019-04-30T06:36:57.249Z,84.0589
2019-04-30T06:38:02.261Z,83.9094
2019-04-30T06:39:08.673Z,83.8956
2019-04-30T06:40:13.939Z,84.6494
2019-04-30T06:41:20.323Z,83.1205
2019-04-30T06:42:26.054Z,83.7308
2019-04-30T06:43:32.078Z,81.3138
2019-04-30T06:44:41.668Z,80.9705
2019-04-30T06:45:50.898Z,81.6342
2019-04-30T06:46:58.834Z,80.0824
2019-04-30T06:48:08.741Z,80.3388
2019-04-30T06:49:14.914Z,79.6368
2019-04-30T06:50:21.426Z,80.6363
2019-04-30T06:51:30.394Z,81.5229
2019-04-30T06:52:38.879Z,82.0676
2019-04-30T06:53:44.197Z,82.8199
2019-04-30T06:54:51.365Z,84.2557
2019-04-30T06:55:56.234Z,81.6983
2019-04-30T06:57:02.082Z,81.6892
2019-04-30T06:58:14.169Z,83.4089
2019-04-30T06:59:20.357Z,81.0117
2019-04-30T07:00:32.926Z,80.5127
2019-04-30T07:01:38.804Z,80.3891
2019-04-30T07:02:44.901Z,80.5859
2019-04-30T07:03:52.316Z,82.3163
2019-04-30T07:04:59.430Z,80.0916
2019-04-30T07:06:05.708Z,80.7675
2019-04-30T07:07:14.327Z,80.7141
2019-04-30T07:08:35.758Z,80.5585
2019-04-30T07:09:51.136Z,78.0728
2019-04-30T07:10:54.958Z,77.4319
2019-04-30T07:11:56.869Z,82.0325
2019-04-30T07:13:03.448Z,78.2376
2019-04-30T07:14:09.654Z,80.8377
2019-04-30T07:15:14.922Z,79.3759
2019-04-30T07:16:20.913Z,81.6693
2019-04-30T07:17:29.096Z,79.7147
2019-04-30T07:18:34.348Z,80.7813
2019-04-30T07:19:53.370Z,79.0066
2019-04-30T07:20:50.902Z,78.9883
2019-04-30T07:21:55.267Z,80.3052
2019-04-30T07:23:03.361Z,79.5468
2019-04-30T07:24:09.472Z,77.2610
2019-04-30T07:25:15.475Z,78.3871
2019-04-30T07:26:24.408Z,78.9014
2019-04-30T07:27:32.405Z,77.3755
2019-04-30T07:28:46.539Z,77.9156
2019-04-30T07:29:49.836Z,79.1074
2019-04-30T07:31:10.721Z,79.1379
2019-04-30T07:33:29.545Z,76.3729
2019-04-30T07:35:55.271Z,80.5295
2019-04-30T07:37:13.287Z,79.3851
2019-04-30T07:42:00.265Z,74.2885
2019-04-30T07:43:05.270Z,75.9533
2019-04-30T07:44:29.453Z,77.6791
2019-04-30T07:45:25.441Z,77.1740
2019-04-30T07:46:35.253Z,77.4624
2019-04-30T07:47:42.397Z,76.9589
2019-04-30T07:48:50.216Z,75.1202
2019-04-30T07:49:56.038Z,74.9386
2019-04-30T07:51:01.876Z,73.4890
2019-04-30T07:52:10.267Z,73.4325
2019-04-30T07:53:19.710Z,73.4752
2019-04-30T07:54:25.545Z,70.3975
2019-04-30T07:55:30.912Z,69.1905
2019-04-30T07:56:40.519Z,70.4341
2019-04-30T07:57:50.245Z,71.7800
2019-04-30T07:59:00.770Z,71.4504
2019-04-30T08:00:07.209Z,74.2748
2019-04-30T08:01:12.224Z,75.6832
2019-04-30T08:02:17.202Z,74.9081
2019-04-30T08:03:24.503Z,73.0983
2019-04-30T08:04:31.128Z,75.2056
2019-04-30T08:05:40.084Z,74.7982
2019-04-30T08:06:46.151Z,75.7321
2019-04-30T08:07:52.268Z,75.5581
2019-04-30T08:09:00.940Z,71.7571
2019-04-30T08:10:08.744Z,68.4260
2019-04-30T08:11:25.715Z,65.7801
2019-04-30T08:13:49.171Z,71.6381
2019-04-30T08:14:55.332Z,69.4331
2019-04-30T08:16:00.525Z,72.0775
2019-04-30T08:17:06.289Z,72.0058
2019-04-30T08:18:12.061Z,72.4498
2019-04-30T08:19:21.707Z,72.3308
2019-04-30T08:20:26.483Z,74.7433
2019-04-30T08:21:32.635Z,73.5836
2019-04-30T08:26:28.673Z,76.3378
2019-04-30T08:27:34.642Z,76.0861
2019-04-30T08:28:41.121Z,75.0957
2019-04-30T08:29:46.215Z,76.5057
2019-04-30T08:30:51.842Z,75.2560
2019-04-30T08:31:59.196Z,76.3684
2019-04-30T08:34:31.331Z,75.8007
2019-04-30T08:37:16.726Z,74.2290
2019-04-30T08:42:04.702Z,73.2540
2019-04-30T08:43:10.447Z,74.5495
2019-04-30T08:46:49.094Z,73.5607
2019-04-30T08:47:54.423Z,75.9335
2019-04-30T08:49:02.875Z,76.3821
2019-04-30T08:50:11.146Z,75.2804
2019-04-30T08:51:16.558Z,76.3134
2019-04-30T08:53:44.259Z,73.5470
2019-04-30T08:56:09.984Z,73.7636
2019-04-30T08:57:19.110Z,74.9523
2019-04-30T08:58:24.295Z,74.6273
2019-04-30T08:59:30.089Z,73.9956
2019-04-30T09:00:35.265Z,75.5535
2019-04-30T09:01:45.353Z,73.9651
2019-04-30T09:02:50.334Z,72.7047
2019-04-30T09:03:55.245Z,72.5231
2019-04-30T09:05:01.298Z,73.1594
2019-04-30T09:06:06.283Z,74.5907
2019-04-30T09:07:12.754Z,73.0617
2019-04-30T09:08:19.240Z,75.2010
2019-04-30T09:09:25.327Z,72.7184
2019-04-30T09:10:31.145Z,74.2702
2019-04-30T09:11:50.100Z,74.1253
2019-04-30T09:12:52.890Z,73.6294
2019-04-30T09:13:59.452Z,75.5322
2019-04-30T09:16:25.242Z,73.0434
2019-04-30T09:17:33.782Z,73.8964
2019-04-30T09:18:39.928Z,70.4936
2019-04-30T09:19:45.262Z,70.8843
2019-04-30T09:20:53.171Z,73.2097
2019-04-30T09:23:13.730Z,70.4936
2019-04-30T09:24:42.376Z,70.1915
2019-04-30T09:25:49.534Z,68.8823
2019-04-30T09:27:15.487Z,69.3553
2019-04-30T09:29:39.082Z,68.4810
2019-04-30T09:32:01.408Z,67.9026
2019-04-30T09:34:22.952Z,68.2567
2019-04-30T09:35:31.787Z,68.2612
2019-04-30T09:38:01.386Z,68.4932
2019-04-30T09:39:08.955Z,66.0273
2019-04-30T09:40:19.082Z,66.9871
2019-04-30T09:42:52.991Z,70.0008
2019-04-30T09:45:16.347Z,70.0374
2019-04-30T09:46:27.058Z,70.3807
2019-04-30T09:47:33.477Z,70.1045
2019-04-30T09:49:59.723Z,68.4291
2019-04-30T09:51:09.813Z,69.2073
2019-04-30T09:52:19.325Z,70.1824
2019-04-30T09:53:24.298Z,68.3146
2019-04-30T09:54:29.904Z,70.7790
2019-04-30T09:55:35.294Z,71.4839
2019-04-30T09:57:55.392Z,72.3613
2019-04-30T09:59:22.745Z,74.6288
2019-04-30T10:01:51.234Z,74.3114
2019-04-30T10:02:59.360Z,75.6542
2019-04-30T10:04:10.266Z,74.2214
2019-04-30T10:05:16.618Z,76.3104
2019-04-30T10:06:22.398Z,74.5907
2019-04-30T10:08:48.305Z,75.3704
2019-04-30T10:11:13.272Z,74.5281
2019-04-30T10:13:36.237Z,74.5998
2019-04-30T10:14:42.450Z,74.4396
2019-04-30T10:19:45.449Z,72.5368
2019-04-30T10:20:51.306Z,71.5373
2019-04-30T10:21:58.975Z,72.2927
2019-04-30T10:24:43.305Z,70.3700
2019-04-30T10:27:07.064Z,68.7129
2019-04-30T10:32:32.310Z,66.9230
2019-04-30T10:33:39.471Z,68.0858
2019-04-30T10:34:44.257Z,65.1423
2019-04-30T10:37:22.336Z,65.0416
2019-04-30T10:38:28.902Z,67.2404
2019-04-30T10:41:02.338Z,69.9184
2019-04-30T10:43:24.388Z,70.4753
2019-04-30T10:44:33.330Z,70.1412
2019-04-30T10:45:38.963Z,70.6462
2019-04-30T10:46:44.239Z,72.2561
2019-04-30T10:47:49.388Z,71.1910
2019-04-30T10:48:55.003Z,70.7881
2019-04-30T10:51:18.953Z,72.1340
2019-04-30T10:53:43.244Z,72.3201
2019-04-30T10:54:49.675Z,71.7861
2019-04-30T10:57:13.230Z,71.5373
2019-04-30T10:59:43.344Z,68.6946
2019-04-30T11:00:49.985Z,70.1686
2019-04-30T11:01:56.385Z,69.8909
2019-04-30T11:03:16.021Z,70.3426
2019-04-30T11:04:15.185Z,71.4244
2019-04-30T11:05:29.252Z,72.6284
2019-04-30T11:06:34.264Z,71.6793
2019-04-30T11:07:42.306Z,71.5526
2019-04-30T11:10:08.737Z,72.7382
2019-04-30T11:12:32.252Z,70.6600
2019-04-30T11:15:15.297Z,70.3243
2019-04-30T11:16:20.292Z,71.0063
2019-04-30T11:17:25.251Z,71.5602
2019-04-30T11:18:32.459Z,72.7138
2019-04-30T11:19:39.063Z,71.3817
2019-04-30T11:20:44.500Z,72.0836
2019-04-30T11:21:51.843Z,71.2734
2019-04-30T11:22:59.690Z,72.4117
2019-04-30T11:24:04.320Z,71.9463
2019-04-30T11:26:26.593Z,70.6096
2019-04-30T11:27:55.877Z,70.1686
2019-04-30T11:29:02.503Z,72.4392
2019-04-30T11:31:27.145Z,72.5322
2019-04-30T11:32:39.610Z,70.5898
